Time;durP1;ratioP1;P1;durP2;ratioP2;P2;SDS_P1;SDS_P2;PMS_P1;PMS_P2;Temp;Humidity;BMP_temperature;BMP_pressure;BME280_temperature;BME280_humidity;BME280_pressure;Samples;Min_cycle;Max_cycle;Signal;HPM_P1;HPM_P2
2022/06/18 00:01:34;;;;;;;3.67;3.33;;;;;;;;;;4791138;29;20039;-77
2022/06/18 00:04:03;;;;;;;3.80;3.50;;;;;;;;;;4792933;29;20055;-76
2022/06/18 00:06:32;;;;;;;4.00;3.08;;;;;;;;;;4791123;29;20062;-77
2022/06/18 00:09:00;;;;;;;5.35;3.20;;;;;;;;;;4793049;29;20049;-77
2022/06/18 00:14:15;;;;;;;3.90;3.60;;;;;;;;;;4794396;29;20054;-78
2022/06/18 00:16:43;;;;;;;3.33;3.13;;;;;;;;;;4793645;29;20808;-77
2022/06/18 00:19:11;;;;;;;5.60;3.50;;;;;;;;;;4777443;29;20058;-78
2022/06/18 00:21:39;;;;;;;3.70;3.40;;;;;;;;;;4784147;29;20078;-78
2022/06/18 00:24:13;;;;;;;3.88;3.47;;;;;;;;;;4782412;29;20499;-77
2022/06/18 00:26:41;;;;;;;3.60;3.30;;;;;;;;;;4790110;29;20050;-77
2022/06/18 00:29:11;;;;;;;3.20;3.00;;;;;;;;;;4791438;29;20078;-77
2022/06/18 00:31:39;;;;;;;5.32;3.50;;;;;;;;;;4787399;29;20055;-77
2022/06/18 00:34:09;;;;;;;5.28;3.40;;;;;;;;;;4788699;29;20067;-77
2022/06/18 00:36:39;;;;;;;4.32;3.10;;;;;;;;;;4793472;29;20063;-77
2022/06/18 00:39:13;;;;;;;3.25;3.05;;;;;;;;;;4789663;29;20043;-77
2022/06/18 00:41:42;;;;;;;4.00;3.10;;;;;;;;;;4778016;29;20607;-77
2022/06/18 00:44:12;;;;;;;;;;;;;;;;;;4794295;29;20103;-77
2022/06/18 00:47:03;;;;;;;4.43;3.53;;;;;;;;;;4788948;29;19930;-78
2022/06/18 00:49:43;;;;;;;4.00;3.40;;;;;;;;;;4766561;29;20134;-78
2022/06/18 00:52:19;;;;;;;4.22;3.40;;;;;;;;;;4792057;29;20411;-77
2022/06/18 00:54:49;;;;;;;3.97;3.28;;;;;;;;;;4790274;29;20484;-77
2022/06/18 00:57:28;;;;;;;3.20;3.00;;;;;;;;;;4779784;29;20094;-77
2022/06/18 01:00:01;;;;;;;5.32;3.35;;;;;;;;;;4793581;29;20074;-78
2022/06/18 01:02:33;;;;;;;3.35;3.15;;;;;;;;;;4778665;29;20043;-77
2022/06/18 01:05:00;;;;;;;3.53;3.25;;;;;;;;;;4793619;29;20669;-77
2022/06/18 01:07:36;;;;;;;3.28;3.08;;;;;;;;;;4795647;29;20074;-77
2022/06/18 01:10:12;;;;;;;3.70;3.22;;;;;;;;;;4793955;29;20042;-78
2022/06/18 01:12:40;;;;;;;3.15;2.88;;;;;;;;;;4794814;29;20054;-78
2022/06/18 01:15:11;;;;;;;4.30;4.00;;;;;;;;;;4781153;29;20496;-77
2022/06/18 01:17:44;;;;;;;4.05;3.45;;;;;;;;;;4792223;29;20043;-77
2022/06/18 01:20:12;;;;;;;3.80;3.50;;;;;;;;;;4800356;29;20054;-78
2022/06/18 01:22:52;;;;;;;3.58;3.38;;;;;;;;;;4795312;29;20039;-78
2022/06/18 01:25:20;;;;;;;3.70;3.40;;;;;;;;;;4777010;29;20668;-78
2022/06/18 01:27:51;;;;;;;3.83;3.38;;;;;;;;;;4765178;29;20125;-77
2022/06/18 01:30:23;;;;;;;4.72;3.30;;;;;;;;;;4793674;29;20054;-78
2022/06/18 01:32:53;;;;;;;4.80;3.40;;;;;;;;;;4780866;29;20074;-77
2022/06/18 01:35:25;;;;;;;3.80;3.47;;;;;;;;;;4794773;29;20074;-77
2022/06/18 01:37:58;;;;;;;3.45;3.25;;;;;;;;;;4795392;29;20530;-76
2022/06/18 01:40:37;;;;;;;3.75;3.45;;;;;;;;;;4794757;29;20061;-77
2022/06/18 01:43:06;;;;;;;4.18;3.45;;;;;;;;;;4800516;29;20561;-76
2022/06/18 01:45:36;;;;;;;6.93;3.30;;;;;;;;;;4805303;29;20563;-78
2022/06/18 01:48:09;;;;;;;3.47;3.28;;;;;;;;;;4799819;29;20720;-77
2022/06/18 01:50:45;;;;;;;3.40;3.17;;;;;;;;;;4782203;29;20058;-77
2022/06/18 01:53:27;;;;;;;3.72;3.42;;;;;;;;;;4791510;29;20507;-76
2022/06/18 01:56:13;;;;;;;3.60;3.40;;;;;;;;;;4776973;29;20098;-77
2022/06/18 01:58:40;;;;;;;3.78;3.50;;;;;;;;;;4775279;29;20074;-79
2022/06/18 02:01:19;;;;;;;3.75;3.40;;;;;;;;;;4786881;29;20541;-77
2022/06/18 02:03:46;;;;;;;4.05;3.75;;;;;;;;;;4791952;29;20446;-77
2022/06/18 02:06:16;;;;;;;3.70;3.50;;;;;;;;;;4790613;29;20067;-77
2022/06/18 02:08:44;;;;;;;3.67;3.28;;;;;;;;;;4792093;29;20058;-77
2022/06/18 02:11:13;;;;;;;4.38;3.97;;;;;;;;;;4792219;29;20507;-77
2022/06/18 02:13:46;;;;;;;4.63;4.13;;;;;;;;;;4792294;29;20463;-77
2022/06/18 02:16:17;;;;;;;5.40;4.05;;;;;;;;;;4790691;29;20055;-76
2022/06/18 02:18:46;;;;;;;5.32;4.82;;;;;;;;;;4792287;29;20638;-77
2022/06/18 02:21:20;;;;;;;7.30;5.05;;;;;;;;;;4791098;29;20897;-78
2022/06/18 02:23:51;;;;;;;9.20;5.45;;;;;;;;;;4795780;29;20107;-78
2022/06/18 02:26:19;;;;;;;5.88;5.38;;;;;;;;;;4781327;29;20043;-77
2022/06/18 02:28:47;;;;;;;6.38;5.78;;;;;;;;;;4793591;29;20126;-78
2022/06/18 02:31:18;;;;;;;6.32;5.72;;;;;;;;;;4790829;29;20415;-77
2022/06/18 02:33:56;;;;;;;8.50;6.07;;;;;;;;;;4794672;29;20050;-77
2022/06/18 02:36:34;;;;;;;9.75;6.97;;;;;;;;;;4792504;29;20051;-78
2022/06/18 02:39:07;;;;;;;9.85;6.53;;;;;;;;;;4783114;29;20752;-77
2022/06/18 02:41:36;;;;;;;9.90;7.25;;;;;;;;;;4813097;29;20051;-77
2022/06/18 02:44:03;;;;;;;8.98;7.20;;;;;;;;;;4800355;29;20075;-77
2022/06/18 02:46:31;;;;;;;9.77;7.38;;;;;;;;;;4797956;29;20050;-78
2022/06/18 02:49:02;;;;;;;10.02;7.72;;;;;;;;;;4807170;29;20046;-77
2022/06/18 02:51:34;;;;;;;9.48;7.88;;;;;;;;;;4787007;29;20050;-77
2022/06/18 02:54:03;;;;;;;9.77;7.53;;;;;;;;;;4800724;29;20117;-77
2022/06/18 02:56:32;;;;;;;10.07;7.78;;;;;;;;;;4801956;29;20050;-77
2022/06/18 02:59:00;;;;;;;11.23;7.75;;;;;;;;;;4801382;29;20074;-77
2022/06/18 03:01:29;;;;;;;9.65;7.80;;;;;;;;;;4806900;29;20053;-77
2022/06/18 03:03:58;;;;;;;12.82;7.35;;;;;;;;;;4807186;29;20054;-77
2022/06/18 03:06:28;;;;;;;;;;;;;;;;;;4810332;29;20047;-77
2022/06/18 03:08:57;;;;;;;11.13;7.50;;;;;;;;;;4805675;29;19968;-77
2022/06/18 03:14:13;;;;;;;14.00;7.43;;;;;;;;;;4785921;29;20058;-77
2022/06/18 03:16:42;;;;;;;10.65;7.50;;;;;;;;;;4796868;29;20069;-77
2022/06/18 03:19:19;;;;;;;9.05;6.88;;;;;;;;;;4788804;29;20397;-77
2022/06/18 03:21:48;;;;;;;8.43;7.47;;;;;;;;;;4806052;29;20078;-76
2022/06/18 03:24:16;;;;;;;10.27;6.95;;;;;;;;;;4783728;29;20047;-77
2022/06/18 03:26:43;;;;;;;7.32;6.45;;;;;;;;;;4805749;29;20817;-77
2022/06/18 03:29:16;;;;;;;10.43;6.45;;;;;;;;;;4813230;29;20047;-77
2022/06/18 03:31:44;;;;;;;9.23;6.70;;;;;;;;;;4800061;29;20096;-76
2022/06/18 03:34:12;;;;;;;9.15;6.57;;;;;;;;;;4802536;29;20063;-77
2022/06/18 03:36:40;;;;;;;12.32;6.45;;;;;;;;;;4805420;29;20133;-77
2022/06/18 03:39:09;;;;;;;7.28;5.72;;;;;;;;;;4792925;29;20141;-77
2022/06/18 03:41:36;;;;;;;7.70;5.78;;;;;;;;;;4806933;29;20084;-76
2022/06/18 03:44:05;;;;;;;6.90;5.75;;;;;;;;;;4797358;29;20070;-77
2022/06/18 03:46:35;;;;;;;7.30;6.50;;;;;;;;;;4797415;29;20146;-77
2022/06/18 03:49:04;;;;;;;6.20;5.60;;;;;;;;;;4797977;29;20148;-77
2022/06/18 03:51:35;;;;;;;5.95;5.28;;;;;;;;;;4798329;29;20066;-76
2022/06/18 03:54:03;;;;;;;5.70;5.20;;;;;;;;;;4792845;29;20043;-77
2022/06/18 03:56:31;;;;;;;8.90;5.22;;;;;;;;;;4818972;29;20103;-76
2022/06/18 03:59:00;;;;;;;8.43;5.38;;;;;;;;;;4807440;29;20058;-76
2022/06/18 04:01:31;;;;;;;7.78;4.95;;;;;;;;;;4810825;29;20065;-77
2022/06/18 04:04:02;;;;;;;6.72;4.95;;;;;;;;;;4794126;29;20568;-78
2022/06/18 04:06:35;;;;;;;6.55;4.60;;;;;;;;;;4805014;29;20051;-77
2022/06/18 04:09:16;;;;;;;5.53;5.03;;;;;;;;;;4785446;29;20834;-77
2022/06/18 04:11:43;;;;;;;6.60;4.90;;;;;;;;;;4806819;29;20855;-77
2022/06/18 04:14:11;;;;;;;7.00;5.05;;;;;;;;;;4802151;24;20141;-76
2022/06/18 04:17:02;;;;;;;5.60;4.95;;;;;;;;;;4800312;29;20057;-76
2022/06/18 04:19:30;;;;;;;6.18;4.20;;;;;;;;;;4803623;29;20046;-73
2022/06/18 04:21:58;;;;;;;4.85;4.43;;;;;;;;;;4786191;29;20115;-73
2022/06/18 04:24:40;;;;;;;4.93;4.53;;;;;;;;;;4799192;29;20092;-74
2022/06/18 04:27:08;;;;;;;6.68;4.43;;;;;;;;;;4810598;29;20069;-74
2022/06/18 04:29:36;;;;;;;4.50;4.10;;;;;;;;;;4802158;29;20035;-73
2022/06/18 04:32:04;;;;;;;4.60;4.30;;;;;;;;;;4808853;29;20392;-74
2022/06/18 04:34:32;;;;;;;5.25;4.43;;;;;;;;;;4797800;29;20054;-73
2022/06/18 04:37:18;;;;;;;4.68;4.28;;;;;;;;;;4821908;29;20072;-72
2022/06/18 04:39:57;;;;;;;7.28;4.40;;;;;;;;;;4829721;29;20057;-75
2022/06/18 04:42:31;;;;;;;4.25;3.72;;;;;;;;;;4817515;29;20045;-74
2022/06/18 04:44:59;;;;;;;5.47;3.72;;;;;;;;;;4824296;29;20048;-75
2022/06/18 04:47:50;;;;;;;7.07;4.28;;;;;;;;;;4811850;29;20524;-75
2022/06/18 04:50:19;;;;;;;5.72;3.85;;;;;;;;;;4814549;29;20040;-74
2022/06/18 04:52:47;;;;;;;4.20;3.90;;;;;;;;;;4819538;29;20042;-73
2022/06/18 04:55:15;;;;;;;4.13;3.83;;;;;;;;;;4819632;29;20057;-73
2022/06/18 04:57:42;;;;;;;3.72;3.42;;;;;;;;;;4833944;29;20049;-74
2022/06/18 05:00:10;;;;;;;4.03;3.33;;;;;;;;;;4833053;29;20522;-74
2022/06/18 05:03:03;;;;;;;3.88;3.58;;;;;;;;;;4830680;29;20099;-73
2022/06/18 05:05:54;;;;;;;4.90;3.65;;;;;;;;;;4830574;29;20050;-74
2022/06/18 05:08:48;;;;;;;4.22;3.55;;;;;;;;;;4814112;29;20062;-73
2022/06/18 05:11:27;;;;;;;3.88;3.42;;;;;;;;;;4809260;29;20042;-74
2022/06/18 05:14:15;;;;;;;4.03;3.67;;;;;;;;;;4818854;29;20057;-74
2022/06/18 05:16:51;;;;;;;5.50;3.60;;;;;;;;;;4826411;29;20042;-74
2022/06/18 05:19:24;;;;;;;3.58;3.25;;;;;;;;;;4816386;29;20680;-74
2022/06/18 05:21:54;;;;;;;3.65;3.45;;;;;;;;;;4804748;29;20050;-75
2022/06/18 05:24:23;;;;;;;3.95;3.13;;;;;;;;;;4833053;29;20042;-73
2022/06/18 05:26:52;;;;;;;5.20;3.20;;;;;;;;;;4792384;29;20050;-72
2022/06/18 05:29:20;;;;;;;3.65;3.35;;;;;;;;;;4817749;29;20045;-74
2022/06/18 05:31:48;;;;;;;4.13;3.80;;;;;;;;;;4817566;29;20108;-73
2022/06/18 05:34:17;;;;;;;4.40;4.00;;;;;;;;;;4833684;29;20500;-73
2022/06/18 05:36:47;;;;;;;4.15;3.85;;;;;;;;;;4811279;29;20054;-73
2022/06/18 05:39:19;;;;;;;3.80;3.50;;;;;;;;;;4807728;29;20043;-73
2022/06/18 05:41:46;;;;;;;7.55;3.75;;;;;;;;;;4813601;29;20046;-74
2022/06/18 05:44:14;;;;;;;5.30;3.58;;;;;;;;;;4807738;29;21039;-74
2022/06/18 05:46:42;;;;;;;3.83;3.33;;;;;;;;;;4825006;29;20133;-72
2022/06/18 05:49:10;;;;;;;7.03;3.75;;;;;;;;;;4803165;29;20095;-73
2022/06/18 05:51:38;;;;;;;3.97;3.40;;;;;;;;;;4819326;29;20090;-73
2022/06/18 05:54:06;;;;;;;3.85;3.30;;;;;;;;;;4813714;29;20566;-72
2022/06/18 05:56:59;;;;;;;3.60;3.40;;;;;;;;;;4783994;29;20071;-74
2022/06/18 05:59:39;;;;;;;4.25;3.20;;;;;;;;;;4784135;29;20069;-74
2022/06/18 06:02:13;;;;;;;3.63;3.33;;;;;;;;;;4783567;29;20201;-74
2022/06/18 06:04:42;;;;;;;3.50;3.20;;;;;;;;;;4787137;29;20053;-74
2022/06/18 06:07:13;;;;;;;3.72;3.08;;;;;;;;;;4830081;29;20090;-74
2022/06/18 06:12:28;;;;;;;5.43;3.58;;;;;;;;;;4809791;29;20487;-74
2022/06/18 06:14:56;;;;;;;3.58;3.28;;;;;;;;;;4815714;29;20038;-74
2022/06/18 06:17:25;;;;;;;4.03;3.60;;;;;;;;;;4782568;29;20057;-73
2022/06/18 06:19:58;;;;;;;6.65;3.85;;;;;;;;;;4812162;29;20051;-75
2022/06/18 06:22:26;;;;;;;4.88;4.00;;;;;;;;;;4810658;29;20133;-74
2022/06/18 06:24:54;;;;;;;3.88;3.55;;;;;;;;;;4813254;29;20147;-74
2022/06/18 06:27:21;;;;;;;4.07;3.72;;;;;;;;;;4824086;29;20050;-74
2022/06/18 06:29:48;;;;;;;4.85;3.33;;;;;;;;;;4830782;29;20084;-73
2022/06/18 06:32:16;;;;;;;5.05;3.38;;;;;;;;;;4812741;29;20046;-75
2022/06/18 06:34:44;;;;;;;2.80;2.60;;;;;;;;;;4824770;29;20052;-75
2022/06/18 06:37:11;;;;;;;3.00;2.80;;;;;;;;;;4818438;29;20054;-74
2022/06/18 06:39:38;;;;;;;3.55;3.25;;;;;;;;;;4823979;29;20046;-73
2022/06/18 06:42:06;;;;;;;4.63;3.00;;;;;;;;;;4813414;29;20078;-75
2022/06/18 06:44:35;;;;;;;3.30;3.00;;;;;;;;;;4821985;29;20046;-74
2022/06/18 06:47:03;;;;;;;3.42;3.10;;;;;;;;;;4812287;29;20038;-74
2022/06/18 06:49:30;;;;;;;2.95;2.75;;;;;;;;;;4818861;29;21397;-75
2022/06/18 06:51:57;;;;;;;3.72;3.38;;;;;;;;;;4816746;29;20050;-73
2022/06/18 06:54:26;;;;;;;3.35;3.05;;;;;;;;;;4819130;29;20077;-74
2022/06/18 06:59:40;;;;;;;3.85;3.45;;;;;;;;;;4815581;29;20527;-73
2022/06/18 07:02:15;;;;;;;3.95;3.08;;;;;;;;;;4812833;29;20077;-75
2022/06/18 07:04:43;;;;;;;3.10;2.80;;;;;;;;;;4813375;29;20129;-80
2022/06/18 07:07:12;;;;;;;2.85;2.63;;;;;;;;;;4814862;29;20042;-78
2022/06/18 07:09:41;;;;;;;8.40;3.58;;;;;;;;;;4803221;29;20050;-78
2022/06/18 07:12:08;;;;;;;3.20;2.60;;;;;;;;;;4801938;29;20045;-75
2022/06/18 07:14:36;;;;;;;3.10;2.72;;;;;;;;;;4796588;29;20045;-75
2022/06/18 07:17:04;;;;;;;3.15;2.65;;;;;;;;;;4800971;29;20129;-75
2022/06/18 07:19:31;;;;;;;3.00;2.80;;;;;;;;;;4809173;29;20572;-77
2022/06/18 07:21:58;;;;;;;2.53;2.33;;;;;;;;;;4814833;29;20129;-75
2022/06/18 07:24:26;;;;;;;2.70;2.50;;;;;;;;;;4813179;29;20050;-75
2022/06/18 07:26:53;;;;;;;2.50;2.40;;;;;;;;;;4814100;29;20057;-75
2022/06/18 07:29:21;;;;;;;2.95;2.40;;;;;;;;;;4817848;29;20137;-75
2022/06/18 07:31:49;;;;;;;2.60;2.40;;;;;;;;;;4813022;29;20051;-77
2022/06/18 07:34:17;;;;;;;3.35;2.40;;;;;;;;;;4810349;29;20161;-76
2022/06/18 07:36:44;;;;;;;2.60;2.40;;;;;;;;;;4825394;29;20304;-76
2022/06/18 07:39:11;;;;;;;2.90;2.70;;;;;;;;;;4823799;29;20073;-75
2022/06/18 07:41:43;;;;;;;4.85;2.92;;;;;;;;;;4806957;29;20054;-77
2022/06/18 07:44:12;;;;;;;2.75;2.55;;;;;;;;;;4828968;29;20078;-78
2022/06/18 07:46:39;;;;;;;3.00;2.80;;;;;;;;;;4831771;29;20053;-77
2022/06/18 07:49:07;;;;;;;3.22;2.85;;;;;;;;;;4830222;29;20132;-75
2022/06/18 07:51:35;;;;;;;3.53;2.92;;;;;;;;;;4838638;29;20117;-76
2022/06/18 07:54:03;;;;;;;2.80;2.60;;;;;;;;;;4811398;29;20043;-77
2022/06/18 07:56:31;;;;;;;5.32;2.63;;;;;;;;;;4838552;29;20136;-75
2022/06/18 07:58:58;;;;;;;2.80;2.60;;;;;;;;;;4834166;29;20467;-75
2022/06/18 08:01:26;;;;;;;2.88;2.60;;;;;;;;;;4821638;29;20137;-75
2022/06/18 08:03:54;;;;;;;3.70;2.40;;;;;;;;;;4819704;29;20508;-77
2022/06/18 08:06:21;;;;;;;3.70;2.72;;;;;;;;;;4832549;29;20563;-76
2022/06/18 08:08:49;;;;;;;3.30;2.63;;;;;;;;;;4801365;29;20129;-78
2022/06/18 08:11:18;;;;;;;3.15;2.85;;;;;;;;;;4803675;29;20043;-76
2022/06/18 08:13:46;;;;;;;4.07;2.40;;;;;;;;;;4817990;29;20069;-75
2022/06/18 08:16:14;;;;;;;2.50;2.38;;;;;;;;;;4818942;29;20498;-76
2022/06/18 08:18:42;;;;;;;4.85;2.45;;;;;;;;;;4817610;29;20503;-75
2022/06/18 08:21:16;;;;;;;3.00;2.72;;;;;;;;;;4818642;29;20082;-75
2022/06/18 08:23:45;;;;;;;2.40;2.30;;;;;;;;;;4800440;29;20340;-78
2022/06/18 08:26:12;;;;;;;3.75;2.63;;;;;;;;;;4828432;29;20464;-77
2022/06/18 08:28:40;;;;;;;4.03;2.25;;;;;;;;;;4819408;29;20106;-76
2022/06/18 08:31:09;;;;;;;4.00;2.17;;;;;;;;;;4837044;29;20483;-78
2022/06/18 08:33:37;;;;;;;2.90;2.47;;;;;;;;;;4823826;29;20057;-79
2022/06/18 08:36:06;;;;;;;4.18;2.47;;;;;;;;;;4819553;29;20562;-79
2022/06/18 08:38:34;;;;;;;3.58;2.60;;;;;;;;;;4811847;29;20057;-75
2022/06/18 08:41:21;;;;;;;5.07;2.40;;;;;;;;;;4833351;29;20095;-76
2022/06/18 08:43:51;;;;;;;3.25;2.20;;;;;;;;;;4802545;29;20237;-76
2022/06/18 08:46:25;;;;;;;2.80;2.60;;;;;;;;;;4817555;29;20143;-79
2022/06/18 08:49:04;;;;;;;3.20;2.50;;;;;;;;;;4817702;29;20042;-75
2022/06/18 08:51:47;;;;;;;4.68;2.63;;;;;;;;;;4787303;29;20046;-76
2022/06/18 08:54:33;;;;;;;3.22;2.10;;;;;;;;;;4819206;29;20133;-76
2022/06/18 08:57:19;;;;;;;3.67;2.20;;;;;;;;;;4801360;29;20551;-75
2022/06/18 08:59:55;;;;;;;2.42;2.22;;;;;;;;;;4818645;29;20085;-76
2022/06/18 09:02:25;;;;;;;2.50;2.33;;;;;;;;;;4816281;29;20115;-75
2022/06/18 09:05:13;;;;;;;2.85;2.35;;;;;;;;;;4819919;29;20038;-76
2022/06/18 09:07:59;;;;;;;4.85;2.28;;;;;;;;;;4807315;29;20400;-76
2022/06/18 09:10:34;;;;;;;2.20;2.10;;;;;;;;;;4816053;29;20102;-78
2022/06/18 09:13:06;;;;;;;2.40;2.22;;;;;;;;;;4779740;29;20500;-76
2022/06/18 09:15:45;;;;;;;8.63;2.40;;;;;;;;;;4817862;29;20261;-76
2022/06/18 09:18:21;;;;;;;2.10;2.00;;;;;;;;;;4819670;29;20050;-77
2022/06/18 09:20:48;;;;;;;2.15;1.92;;;;;;;;;;4817601;29;20111;-76
2022/06/18 09:23:21;;;;;;;2.40;2.30;;;;;;;;;;4818387;29;20478;-75
2022/06/18 09:25:50;;;;;;;2.22;2.10;;;;;;;;;;4816589;29;20049;-76
2022/06/18 09:28:25;;;;;;;2.10;2.00;;;;;;;;;;4817327;29;20556;-75
2022/06/18 09:31:11;;;;;;;4.07;2.47;;;;;;;;;;4816525;29;20149;-75
2022/06/18 09:33:44;;;;;;;4.78;2.20;;;;;;;;;;4816639;29;20046;-76
2022/06/18 09:36:12;;;;;;;6.75;2.30;;;;;;;;;;4817771;29;20089;-74
2022/06/18 09:38:52;;;;;;;4.38;2.20;;;;;;;;;;4816457;29;20249;-76
2022/06/18 09:41:26;;;;;;;3.42;1.90;;;;;;;;;;4798722;29;20050;-75
2022/06/18 09:44:07;;;;;;;2.22;1.88;;;;;;;;;;4800047;29;20111;-75
2022/06/18 09:46:37;;;;;;;2.35;2.15;;;;;;;;;;4800419;29;20059;-77
2022/06/18 09:49:06;;;;;;;4.32;2.20;;;;;;;;;;4815326;29;20393;-74
2022/06/18 09:52:10;;;;;;;4.55;2.40;;;;;;;;;;4815783;29;20720;-75
2022/06/18 09:54:48;;;;;;;2.15;2.05;;;;;;;;;;4805926;29;20109;-77
2022/06/18 09:57:17;;;;;;;2.30;2.10;;;;;;;;;;4802903;29;20461;-75
2022/06/18 10:00:01;;;;;;;2.30;2.10;;;;;;;;;;4808957;29;20734;-75
2022/06/18 10:02:37;;;;;;;3.42;2.00;;;;;;;;;;4827399;29;20053;-75
2022/06/18 10:07:55;;;;;;;2.13;2.00;;;;;;;;;;4816659;29;20045;-75
2022/06/18 10:10:25;;;;;;;4.07;1.95;;;;;;;;;;4818862;29;20090;-75
2022/06/18 10:12:55;;;;;;;2.35;2.10;;;;;;;;;;4809176;29;20066;-75
2022/06/18 10:15:36;;;;;;;2.63;2.42;;;;;;;;;;4828528;24;20067;-85
2022/06/18 10:19:13;;;;;;;2.05;1.95;;;;;;;;;;4828613;29;20047;-84
2022/06/18 10:22:02;;;;;;;4.85;1.90;;;;;;;;;;4783049;29;20455;-85
2022/06/18 10:24:51;;;;;;;1.92;1.75;;;;;;;;;;4831809;29;20049;-87
2022/06/18 10:27:25;;;;;;;2.40;1.80;;;;;;;;;;4837581;29;20049;-87
2022/06/18 10:30:57;;;;;;;4.28;1.90;;;;;;;;;;4839339;29;20518;-87
2022/06/18 10:33:49;;;;;;;3.90;1.90;;;;;;;;;;4828336;29;20063;-87
2022/06/18 10:40:29;;;;;;;3.53;1.90;;;;;;;;;;5479042;24;20065;-76
2022/06/18 10:43:21;;;;;;;5.68;1.83;;;;;;;;;;4837158;29;20484;-75
2022/06/18 10:45:52;;;;;;;2.67;1.85;;;;;;;;;;4830522;29;20065;-75
2022/06/18 10:48:22;;;;;;;2.60;1.75;;;;;;;;;;4854733;29;20515;-75
2022/06/18 10:50:51;;;;;;;5.43;1.83;;;;;;;;;;4848414;29;20304;-75
2022/06/18 10:53:20;;;;;;;1.95;1.58;;;;;;;;;;4837480;29;20721;-75
2022/06/18 10:55:59;;;;;;;2.13;1.90;;;;;;;;;;4864124;29;20048;-76
2022/06/18 10:58:27;;;;;;;1.60;1.52;;;;;;;;;;4847420;29;20037;-76
2022/06/18 11:00:59;;;;;;;2.38;1.70;;;;;;;;;;4837005;29;20049;-76
2022/06/18 11:03:29;;;;;;;1.73;1.35;;;;;;;;;;4859651;29;20136;-76
2022/06/18 11:05:57;;;;;;;1.88;1.50;;;;;;;;;;4813338;29;20117;-77
2022/06/18 11:08:28;;;;;;;1.75;1.65;;;;;;;;;;4824541;29;20056;-76
2022/06/18 11:10:56;;;;;;;1.80;1.58;;;;;;;;;;4849768;29;20391;-77
2022/06/18 11:13:28;;;;;;;1.60;1.50;;;;;;;;;;4843628;29;20053;-75
2022/06/18 11:16:14;;;;;;;1.58;1.50;;;;;;;;;;4864064;29;20068;-75
2022/06/18 11:18:46;;;;;;;4.20;1.38;;;;;;;;;;4866141;29;20053;-75
2022/06/18 11:21:20;;;;;;;2.10;1.90;;;;;;;;;;4852123;29;20097;-76
2022/06/18 11:23:51;;;;;;;1.63;1.40;;;;;;;;;;4852323;29;20775;-76
2022/06/18 11:26:35;;;;;;;2.15;1.63;;;;;;;;;;4833558;29;20106;-76
2022/06/18 11:29:10;;;;;;;1.70;1.60;;;;;;;;;;4828194;29;20050;-76
2022/06/18 11:31:44;;;;;;;2.05;1.52;;;;;;;;;;4848034;29;20946;-78
2022/06/18 11:34:26;;;;;;;1.73;1.63;;;;;;;;;;4847855;29;21157;-78
2022/06/18 11:36:55;;;;;;;2.95;1.52;;;;;;;;;;4848853;29;20787;-78
2022/06/18 11:39:38;;;;;;;1.35;1.35;;;;;;;;;;4829216;29;20427;-78
2022/06/18 11:42:22;;;;;;;1.83;1.20;;;;;;;;;;4821266;29;20063;-78
2022/06/18 11:45:16;;;;;;;2.40;1.20;;;;;;;;;;4824992;29;20074;-77
2022/06/18 11:47:50;;;;;;;1.38;1.33;;;;;;;;;;4814888;29;20514;-79
2022/06/18 11:50:27;;;;;;;2.55;1.10;;;;;;;;;;4826869;29;20478;-79
2022/06/18 11:53:00;;;;;;;2.70;1.20;;;;;;;;;;4841710;29;20049;-79
2022/06/18 11:55:36;;;;;;;1.30;1.20;;;;;;;;;;4831116;29;20120;-79
2022/06/18 11:58:10;;;;;;;1.58;1.38;;;;;;;;;;4837856;29;20369;-80
2022/06/18 12:00:52;;;;;;;1.25;1.15;;;;;;;;;;4799415;29;20046;-80
2022/06/18 12:03:19;;;;;;;2.70;1.25;;;;;;;;;;4852634;29;20052;-80
2022/06/18 12:05:51;;;;;;;0.90;0.90;;;;;;;;;;4841492;29;20045;-79
2022/06/18 12:08:20;;;;;;;1.88;1.13;;;;;;;;;;4836748;29;20064;-79
2022/06/18 12:10:49;;;;;;;2.28;1.20;;;;;;;;;;4820808;29;20041;-79
2022/06/18 12:13:34;;;;;;;1.40;1.30;;;;;;;;;;4853538;29;20157;-80
2022/06/18 12:16:10;;;;;;;1.17;1.00;;;;;;;;;;4823088;29;20472;-80
2022/06/18 12:18:43;;;;;;;1.58;1.30;;;;;;;;;;4847822;29;20321;-80
2022/06/18 12:21:21;;;;;;;2.10;1.15;;;;;;;;;;4848033;29;20167;-80
2022/06/18 12:23:48;;;;;;;1.08;1.08;;;;;;;;;;4842972;29;20343;-80
2022/06/18 12:26:21;;;;;;;1.65;1.25;;;;;;;;;;4844705;29;20127;-80
2022/06/18 12:29:00;;;;;;;1.65;1.48;;;;;;;;;;4859186;29;20113;-80
2022/06/18 12:31:39;;;;;;;1.45;0.77;;;;;;;;;;4857917;29;20446;-80
2022/06/18 12:34:15;;;;;;;4.07;1.10;;;;;;;;;;4841656;29;20041;-80
2022/06/18 12:36:46;;;;;;;0.88;0.88;;;;;;;;;;4857309;29;20144;-80
2022/06/18 12:39:17;;;;;;;1.10;1.10;;;;;;;;;;4862571;29;20090;-80
2022/06/18 12:41:59;;;;;;;1.95;1.00;;;;;;;;;;4863348;29;20057;-80
2022/06/18 12:44:40;;;;;;;1.38;0.90;;;;;;;;;;4861043;29;20088;-80
2022/06/18 12:47:07;;;;;;;;;;;;;;;;;;4857628;29;20541;-80
2022/06/18 12:49:43;;;;;;;1.30;0.93;;;;;;;;;;4854543;29;19971;-79
2022/06/18 12:52:11;;;;;;;0.90;0.90;;;;;;;;;;4836565;29;20045;-79
2022/06/18 12:54:44;;;;;;;1.95;1.02;;;;;;;;;;4841737;29;20482;-79
2022/06/18 12:57:20;;;;;;;4.30;1.08;;;;;;;;;;4842454;29;20310;-79
2022/06/18 12:59:59;;;;;;;3.55;1.20;;;;;;;;;;4843433;29;20431;-80
2022/06/18 13:02:34;;;;;;;2.50;1.15;;;;;;;;;;4860813;29;20140;-80
2022/06/18 13:05:08;;;;;;;1.13;1.02;;;;;;;;;;4859339;29;20121;-80
2022/06/18 13:07:42;;;;;;;1.83;1.00;;;;;;;;;;4858272;29;20341;-80
2022/06/18 13:10:19;;;;;;;1.90;1.20;;;;;;;;;;4827757;29;20496;-81
2022/06/18 13:12:50;;;;;;;3.45;1.00;;;;;;;;;;4834029;29;20297;-81
2022/06/18 13:15:27;;;;;;;3.30;1.10;;;;;;;;;;4852538;29;20056;-80
2022/06/18 13:17:58;;;;;;;1.30;1.20;;;;;;;;;;4832750;29;20108;-80
2022/06/18 13:20:36;;;;;;;1.08;1.08;;;;;;;;;;4847975;29;20128;-80
2022/06/18 13:28:10;;;;;;;0.98;0.98;;;;;;;;;;4824455;29;20566;-80
2022/06/18 13:28:45;;;;;;;2.65;0.95;;;;;;;;;;4857328;29;20057;-80
2022/06/18 13:31:26;;;;;;;2.95;1.25;;;;;;;;;;4853064;29;20049;-80
2022/06/18 13:34:06;;;;;;;0.80;0.80;;;;;;;;;;4836004;29;20041;-79
2022/06/18 13:36:37;;;;;;;1.30;0.90;;;;;;;;;;4829485;29;20168;-80
2022/06/18 13:39:11;;;;;;;3.22;1.15;;;;;;;;;;4844865;29;20053;-80
2022/06/18 13:41:57;;;;;;;2.15;1.10;;;;;;;;;;4852012;29;20045;-80
2022/06/18 13:44:27;;;;;;;2.40;1.10;;;;;;;;;;4837891;29;20037;-80
2022/06/18 13:47:06;;;;;;;5.70;1.17;;;;;;;;;;4838627;29;20050;-80
2022/06/18 13:49:35;;;;;;;4.15;1.10;;;;;;;;;;4813874;29;20046;-79
2022/06/18 13:52:03;;;;;;;1.23;1.13;;;;;;;;;;4842096;29;20053;-79
2022/06/18 13:54:41;;;;;;;1.00;1.00;;;;;;;;;;4857123;29;20049;-80
2022/06/18 13:57:10;;;;;;;1.98;1.00;;;;;;;;;;4840383;29;20069;-79
2022/06/18 13:59:49;;;;;;;4.10;0.95;;;;;;;;;;4849768;29;20048;-79
2022/06/18 14:02:41;;;;;;;2.47;1.13;;;;;;;;;;4820549;29;20053;-79
2022/06/18 14:05:11;;;;;;;1.55;0.90;;;;;;;;;;4828885;29;20037;-79
2022/06/18 14:07:43;;;;;;;0.80;0.80;;;;;;;;;;4824643;29;20045;-79
2022/06/18 14:10:15;;;;;;;2.42;0.90;;;;;;;;;;4829905;29;20132;-79
2022/06/18 14:12:47;;;;;;;1.95;1.00;;;;;;;;;;4854639;29;20121;-79
2022/06/18 14:15:17;;;;;;;3.20;1.10;;;;;;;;;;4853957;29;20072;-79
2022/06/18 14:17:48;;;;;;;2.40;1.00;;;;;;;;;;4839920;29;20065;-80
2022/06/18 14:20:23;;;;;;;1.27;1.10;;;;;;;;;;4846943;29;20699;-79
2022/06/18 14:23:11;;;;;;;1.10;1.00;;;;;;;;;;4841580;29;20719;-80
2022/06/18 14:25:42;;;;;;;1.33;1.00;;;;;;;;;;4829222;29;20049;-79
2022/06/18 14:28:20;;;;;;;2.20;1.10;;;;;;;;;;4831341;29;20049;-79
2022/06/18 14:30:50;;;;;;;4.68;1.05;;;;;;;;;;4840177;29;20113;-79
2022/06/18 14:33:31;;;;;;;4.28;1.10;;;;;;;;;;4834613;29;20049;-79
2022/06/18 14:36:28;;;;;;;2.70;0.88;;;;;;;;;;4810946;29;20245;-80
2022/06/18 14:38:57;;;;;;;1.10;1.00;;;;;;;;;;4828361;29;20061;-79
2022/06/18 14:41:36;;;;;;;0.95;0.95;;;;;;;;;;4835783;29;20424;-79
2022/06/18 14:44:05;;;;;;;1.20;1.10;;;;;;;;;;4829337;29;20055;-79
2022/06/18 14:46:56;;;;;;;1.85;1.13;;;;;;;;;;4837647;29;20136;-79
2022/06/18 14:49:32;;;;;;;1.33;0.95;;;;;;;;;;4832486;29;20068;-79
2022/06/18 14:52:18;;;;;;;1.23;1.10;;;;;;;;;;4835427;29;20061;-78
2022/06/18 14:55:02;;;;;;;5.82;1.20;;;;;;;;;;4857739;29;20049;-79
2022/06/18 14:57:29;;;;;;;2.17;1.00;;;;;;;;;;4851369;29;20069;-79
2022/06/18 15:00:00;;;;;;;1.63;1.20;;;;;;;;;;4816098;29;20160;-78
2022/06/18 15:02:31;;;;;;;1.42;1.10;;;;;;;;;;4825703;29;20557;-79
2022/06/18 15:04:59;;;;;;;1.85;1.42;;;;;;;;;;4830056;29;20049;-79
2022/06/18 15:07:31;;;;;;;1.00;0.90;;;;;;;;;;4821660;29;20041;-79
2022/06/18 15:10:04;;;;;;;2.15;1.13;;;;;;;;;;4812897;29;20100;-79
2022/06/18 15:12:32;;;;;;;2.60;1.00;;;;;;;;;;4837458;29;20053;-79
2022/06/18 15:15:02;;;;;;;2.67;1.23;;;;;;;;;;4840842;29;20060;-80
2022/06/18 15:17:44;;;;;;;1.00;1.00;;;;;;;;;;4812153;29;20057;-79
2022/06/18 15:20:50;;;;;;;1.58;0.98;;;;;;;;;;4829485;29;20076;-79
2022/06/18 15:23:24;;;;;;;1.85;1.00;;;;;;;;;;4825665;29;20430;-79
2022/06/18 15:25:51;;;;;;;5.47;1.17;;;;;;;;;;4837752;29;20041;-79
2022/06/18 15:28:20;;;;;;;2.00;1.02;;;;;;;;;;4807553;29;20117;-78
2022/06/18 15:31:01;;;;;;;2.65;1.20;;;;;;;;;;4840745;29;20057;-78
2022/06/18 15:33:28;;;;;;;1.15;1.00;;;;;;;;;;4833403;29;20041;-79
2022/06/18 15:35:57;;;;;;;3.42;1.00;;;;;;;;;;4859239;29;20468;-79
2022/06/18 15:38:30;;;;;;;1.73;1.00;;;;;;;;;;4836360;29;20048;-79
2022/06/18 15:41:10;;;;;;;2.05;1.13;;;;;;;;;;4840936;29;20061;-79